Terminal Aerodrome Forecast
Issued by NWS Huntsville, AL

Home | Current Version | Previous Version | Text Only | Print | Product List | Glossary On
Versions: 1 2 3 4 5 6 7 8 9 10 11 12 13 14 15 16 17 18 19 20 21 22 23 24 25 26 27 28 29 30 31 32 33 34 35 36
000
FTUS44 KHUN 051509 AAB
TAFMSL
TAF AMD
KMSL 051509Z 0515/0612 36010G20KT 4SM BR SCT009 OVC015
      TEMPO 0517/0519 3SM -PLSN
     FM051900 36010G20KT P6SM OVC020
     FM060700 36010KT P6SM OVC050=

USA.gov is the U.S. government's official web portal to all federal, state and local government web resources and services.